MSR912 HECA-OMDB
Flight info
| Callsign | MSR912 |
|---|---|
| Flight time | 2h 26m |
| Altitude | 39000 |
| Route | MENLI N697 SISIK W976 TAKSU L550 KARIK B411 DEESA Y415 LOTOK P559 KMC/N0477F410 P559 VUTEB |
| Aircraft | A359/H-SDE2E3GHIJ3J4J5LM1ORWXY/LB1D1 |
Departure
| Time | 2026-04-23 17:23 |
|---|---|
| Airport | Cairo International Airport (HECA) |
Arrival
| Time | 2026-04-23 19:49 |
|---|---|
| Airport | Dubai International Airport (OMDB) |
| Time | Latitude | Longitude | Altitude | Speed | Heading |
|---|---|---|---|---|---|
| 2026-04-23 16:41 | 30.11197 | 31.40364 | 380 ft | 0 kts | 227° |
| 2026-04-23 17:08 | 30.11210 | 31.40381 | 380 ft | 4 kts | 229° |
| 2026-04-23 17:08 | 30.11226 | 31.40401 | 380 ft | 4 kts | 219° |
| 2026-04-23 17:09 | 30.11246 | 31.40409 | 380 ft | 4 kts | 155° |
| 2026-04-23 17:09 | 30.11267 | 31.40391 | 380 ft | 4 kts | 137° |
| 2026-04-23 17:09 | 30.11270 | 31.40388 | 380 ft | 0 kts | 139° |
| 2026-04-23 17:14 | 30.11269 | 31.40389 | 380 ft | 1 kts | 139° |
| 2026-04-23 17:15 | 30.11241 | 31.40417 | 380 ft | 10 kts | 139° |
| 2026-04-23 17:15 | 30.11178 | 31.40481 | 380 ft | 9 kts | 139° |
| 2026-04-23 17:15 | 30.11111 | 31.40550 | 380 ft | 14 kts | 139° |
| 2026-04-23 17:15 | 30.11044 | 31.40612 | 380 ft | 11 kts | 142° |
| 2026-04-23 17:16 | 30.10977 | 31.40606 | 380 ft | 13 kts | 214° |
| 2026-04-23 17:16 | 30.10901 | 31.40510 | 380 ft | 18 kts | 229° |
| 2026-04-23 17:16 | 30.10811 | 31.40391 | 380 ft | 21 kts | 229° |
| 2026-04-23 17:16 | 30.10709 | 31.40256 | 380 ft | 16 kts | 229° |
| 2026-04-23 17:17 | 30.10627 | 31.40147 | 380 ft | 20 kts | 228° |
| 2026-04-23 17:17 | 30.10532 | 31.40022 | 380 ft | 21 kts | 229° |
| 2026-04-23 17:17 | 30.10453 | 31.39918 | 380 ft | 18 kts | 229° |
| 2026-04-23 17:17 | 30.10374 | 31.39813 | 380 ft | 19 kts | 230° |
| 2026-04-23 17:18 | 30.10226 | 31.39619 | 380 ft | 18 kts | 229° |
| 2026-04-23 17:18 | 30.10121 | 31.39601 | 380 ft | 17 kts | 142° |
| 2026-04-23 17:18 | 30.10046 | 31.39674 | 380 ft | 7 kts | 140° |
| 2026-04-23 17:19 | 30.10029 | 31.39693 | 380 ft | 0 kts | 131° |
| 2026-04-23 17:21 | 30.10021 | 31.39707 | 380 ft | 6 kts | 123° |
| 2026-04-23 17:21 | 30.10041 | 31.39922 | 376 ft | 19 kts | 54° |
| 2026-04-23 17:22 | 30.10135 | 31.40048 | 378 ft | 24 kts | 49° |
| 2026-04-23 17:22 | 30.11015 | 31.41217 | 381 ft | 171 kts | 49° |
| 2026-04-23 17:23 | 30.12382 | 31.43902 | 1506 ft | 204 kts | 95° |
| 2026-04-23 17:23 | 30.11971 | 31.45387 | 2027 ft | 195 kts | 123° |
| 2026-04-23 17:23 | 30.10327 | 31.48229 | 2231 ft | 235 kts | 132° |
| 2026-04-23 17:24 | 30.09309 | 31.49823 | 2447 ft | 257 kts | 124° |
| 2026-04-23 17:24 | 30.08221 | 31.51517 | 2982 ft | 267 kts | 125° |
| 2026-04-23 17:24 | 30.06011 | 31.54986 | 3482 ft | 271 kts | 126° |
| 2026-04-23 17:25 | 30.03441 | 31.58206 | 3841 ft | 274 kts | 134° |
| 2026-04-23 17:25 | 30.02087 | 31.59773 | 4506 ft | 277 kts | 134° |
| 2026-04-23 17:26 | 29.99321 | 31.62913 | 5930 ft | 281 kts | 135° |
| 2026-04-23 17:26 | 29.96486 | 31.66138 | 7285 ft | 288 kts | 136° |
| 2026-04-23 17:27 | 29.93634 | 31.69379 | 8776 ft | 293 kts | 136° |
| 2026-04-23 17:27 | 29.92178 | 31.71041 | 9488 ft | 296 kts | 137° |
| 2026-04-23 17:27 | 29.90705 | 31.72722 | 10153 ft | 302 kts | 137° |
| 2026-04-23 17:27 | 29.89168 | 31.74464 | 10474 ft | 319 kts | 138° |
| 2026-04-23 17:28 | 29.87519 | 31.76286 | 10730 ft | 337 kts | 140° |
| 2026-04-23 17:28 | 29.85760 | 31.78176 | 10980 ft | 354 kts | 140° |
| 2026-04-23 17:28 | 29.83935 | 31.80148 | 11375 ft | 364 kts | 139° |
| 2026-04-23 17:28 | 29.82104 | 31.82183 | 12008 ft | 367 kts | 138° |
| 2026-04-23 17:29 | 29.80310 | 31.84245 | 12550 ft | 372 kts | 135° |
| 2026-04-23 17:29 | 29.78748 | 31.86641 | 13130 ft | 378 kts | 122° |
| 2026-04-23 17:29 | 29.76812 | 31.92317 | 14265 ft | 386 kts | 108° |
| 2026-04-23 17:30 | 29.76098 | 31.95312 | 14772 ft | 390 kts | 106° |
| 2026-04-23 17:30 | 29.74804 | 32.01446 | 15829 ft | 398 kts | 105° |
| 2026-04-23 17:30 | 29.74155 | 32.04556 | 16365 ft | 402 kts | 105° |
| 2026-04-23 17:31 | 29.73485 | 32.07701 | 16904 ft | 406 kts | 105° |
| 2026-04-23 17:31 | 29.72806 | 32.10822 | 17452 ft | 410 kts | 106° |
| 2026-04-23 17:31 | 29.72101 | 32.14015 | 17985 ft | 414 kts | 106° |
| 2026-04-23 17:31 | 29.71381 | 32.17236 | 18439 ft | 418 kts | 106° |
| 2026-04-23 17:32 | 29.70652 | 32.20485 | 18910 ft | 422 kts | 106° |
| 2026-04-23 17:32 | 29.69915 | 32.23767 | 19390 ft | 425 kts | 106° |
| 2026-04-23 17:32 | 29.69173 | 32.27071 | 19864 ft | 429 kts | 106° |
| 2026-04-23 17:32 | 29.68422 | 32.30405 | 20322 ft | 433 kts | 106° |
| 2026-04-23 17:33 | 29.67665 | 32.33768 | 20800 ft | 436 kts | 106° |
| 2026-04-23 17:33 | 29.66902 | 32.37156 | 21301 ft | 440 kts | 107° |
| 2026-04-23 17:33 | 29.66131 | 32.40573 | 21788 ft | 443 kts | 107° |
| 2026-04-23 17:33 | 29.65363 | 32.43969 | 22254 ft | 447 kts | 107° |
| 2026-04-23 17:34 | 29.64577 | 32.47442 | 22725 ft | 451 kts | 107° |
| 2026-04-23 17:34 | 29.63783 | 32.50947 | 23199 ft | 455 kts | 107° |
| 2026-04-23 17:34 | 29.62175 | 32.58035 | 24032 ft | 462 kts | 107° |
| 2026-04-23 17:35 | 29.61362 | 32.61618 | 24445 ft | 464 kts | 107° |
| 2026-04-23 17:35 | 29.60030 | 32.68912 | 25211 ft | 471 kts | 97° |
| 2026-04-23 17:35 | 29.59873 | 32.72632 | 25633 ft | 473 kts | 94° |
| 2026-04-23 17:36 | 29.59829 | 32.76425 | 26024 ft | 476 kts | 92° |
| 2026-04-23 17:36 | 29.59848 | 32.80244 | 26409 ft | 480 kts | 91° |
| 2026-04-23 17:36 | 29.59899 | 32.84083 | 26789 ft | 482 kts | 91° |
| 2026-04-23 17:36 | 29.59957 | 32.87949 | 27177 ft | 485 kts | 91° |
| 2026-04-23 17:37 | 29.60013 | 32.91839 | 27533 ft | 489 kts | 91° |
| 2026-04-23 17:37 | 29.60061 | 32.95757 | 27913 ft | 491 kts | 92° |
| 2026-04-23 17:37 | 29.60139 | 33.03653 | 28660 ft | 497 kts | 92° |
| 2026-04-23 17:38 | 29.60170 | 33.07582 | 29021 ft | 500 kts | 92° |
| 2026-04-23 17:38 | 29.60200 | 33.11587 | 29352 ft | 503 kts | 92° |
| 2026-04-23 17:38 | 29.60228 | 33.15617 | 29706 ft | 506 kts | 92° |
| 2026-04-23 17:38 | 29.60256 | 33.19671 | 29979 ft | 509 kts | 93° |
| 2026-04-23 17:39 | 29.60283 | 33.23751 | 30247 ft | 512 kts | 93° |
| 2026-04-23 17:39 | 29.60310 | 33.27849 | 30560 ft | 514 kts | 93° |
| 2026-04-23 17:39 | 29.60337 | 33.31967 | 30842 ft | 516 kts | 93° |
| 2026-04-23 17:39 | 29.60362 | 33.36093 | 31155 ft | 518 kts | 93° |
| 2026-04-23 17:40 | 29.60386 | 33.40235 | 31454 ft | 519 kts | 93° |
| 2026-04-23 17:40 | 29.60408 | 33.44331 | 31708 ft | 521 kts | 93° |
| 2026-04-23 17:40 | 29.60428 | 33.48498 | 31947 ft | 522 kts | 93° |
| 2026-04-23 17:40 | 29.60447 | 33.52676 | 32180 ft | 524 kts | 93° |
| 2026-04-23 17:41 | 29.60465 | 33.56870 | 32416 ft | 526 kts | 93° |
| 2026-04-23 17:41 | 29.60497 | 33.65302 | 32875 ft | 529 kts | 93° |
| 2026-04-23 17:41 | 29.60512 | 33.69537 | 33068 ft | 531 kts | 94° |
| 2026-04-23 17:42 | 29.60535 | 33.77992 | 33535 ft | 532 kts | 94° |
| 2026-04-23 17:42 | 29.60544 | 33.82240 | 33835 ft | 531 kts | 94° |
| 2026-04-23 17:42 | 29.60546 | 33.86474 | 34084 ft | 531 kts | 94° |
| 2026-04-23 17:43 | 29.60533 | 33.90723 | 34207 ft | 532 kts | 95° |
| 2026-04-23 17:43 | 29.60495 | 33.99230 | 34223 ft | 533 kts | 95° |
| 2026-04-23 17:44 | 29.60461 | 34.07772 | 34217 ft | 535 kts | 95° |
| 2026-04-23 17:44 | 29.60429 | 34.20539 | 34222 ft | 534 kts | 94° |
| 2026-04-23 17:45 | 29.60421 | 34.33321 | 34211 ft | 533 kts | 94° |
| 2026-04-23 17:46 | 29.60447 | 34.46109 | 34206 ft | 534 kts | 94° |
| 2026-04-23 17:46 | 29.59820 | 34.54481 | 34197 ft | 527 kts | 109° |
| 2026-04-23 17:47 | 29.57084 | 34.62133 | 34198 ft | 512 kts | 130° |
| 2026-04-23 17:47 | 29.52453 | 34.68132 | 34177 ft | 498 kts | 147° |
| 2026-04-23 17:48 | 29.49839 | 34.70764 | 34173 ft | 503 kts | 144° |
| 2026-04-23 17:48 | 29.45336 | 34.77058 | 34163 ft | 522 kts | 127° |
| 2026-04-23 17:48 | 29.43769 | 34.80858 | 34165 ft | 532 kts | 116° |
| 2026-04-23 17:49 | 29.42808 | 34.84919 | 34165 ft | 538 kts | 108° |
| 2026-04-23 17:49 | 29.41634 | 34.93406 | 34158 ft | 542 kts | 98° |
| 2026-04-23 17:49 | 29.41692 | 34.97746 | 34287 ft | 547 kts | 88° |
| 2026-04-23 17:50 | 29.42331 | 35.02057 | 34416 ft | 551 kts | 81° |
| 2026-04-23 17:50 | 29.44198 | 35.10613 | 34720 ft | 554 kts | 78° |
| 2026-04-23 17:50 | 29.45215 | 35.14879 | 34924 ft | 554 kts | 78° |
| 2026-04-23 17:51 | 29.46225 | 35.19088 | 35079 ft | 555 kts | 78° |
| 2026-04-23 17:51 | 29.47240 | 35.23353 | 35242 ft | 555 kts | 78° |
| 2026-04-23 17:52 | 29.50257 | 35.36266 | 35676 ft | 557 kts | 78° |
| 2026-04-23 17:52 | 29.52242 | 35.44819 | 36212 ft | 553 kts | 79° |
| 2026-04-23 17:52 | 29.53235 | 35.49098 | 36281 ft | 555 kts | 79° |
| 2026-04-23 17:53 | 29.56291 | 35.61995 | 36379 ft | 563 kts | 78° |
| 2026-04-23 17:53 | 29.57322 | 35.66332 | 36517 ft | 563 kts | 78° |
| 2026-04-23 17:54 | 29.58355 | 35.70666 | 36666 ft | 563 kts | 78° |
| 2026-04-23 17:54 | 29.59389 | 35.75003 | 36789 ft | 563 kts | 78° |
| 2026-04-23 17:54 | 29.61435 | 35.83692 | 37137 ft | 562 kts | 80° |
| 2026-04-23 17:55 | 29.62966 | 35.92424 | 37346 ft | 562 kts | 84° |
| 2026-04-23 17:55 | 29.63621 | 35.96845 | 37462 ft | 562 kts | 84° |
| 2026-04-23 17:55 | 29.64275 | 36.01275 | 37579 ft | 562 kts | 84° |
| 2026-04-23 17:56 | 29.64948 | 36.05699 | 37699 ft | 562 kts | 84° |
| 2026-04-23 17:56 | 29.66351 | 36.14537 | 37939 ft | 562 kts | 83° |
| 2026-04-23 17:56 | 29.67069 | 36.18957 | 38045 ft | 563 kts | 83° |
| 2026-04-23 17:57 | 29.67790 | 36.23375 | 38168 ft | 563 kts | 83° |
| 2026-04-23 17:57 | 29.68512 | 36.27800 | 38262 ft | 563 kts | 83° |
| 2026-04-23 17:57 | 29.69942 | 36.36617 | 38424 ft | 565 kts | 83° |
| 2026-04-23 17:58 | 29.70663 | 36.41058 | 38545 ft | 565 kts | 83° |
| 2026-04-23 17:58 | 29.72088 | 36.49779 | 38720 ft | 565 kts | 83° |
| 2026-04-23 17:59 | 29.73564 | 36.58835 | 38751 ft | 568 kts | 83° |
| 2026-04-23 17:59 | 29.74567 | 36.67751 | 38876 ft | 563 kts | 96° |
| 2026-04-23 17:59 | 29.74238 | 36.72200 | 38879 ft | 554 kts | 107° |
| 2026-04-23 18:00 | 29.73543 | 36.76548 | 38862 ft | 552 kts | 109° |
| 2026-04-23 18:00 | 29.71862 | 36.85178 | 38911 ft | 554 kts | 111° |
| 2026-04-23 18:01 | 29.70072 | 36.93796 | 38892 ft | 553 kts | 111° |
| 2026-04-23 18:01 | 29.68324 | 37.02341 | 38880 ft | 552 kts | 110° |
| 2026-04-23 18:02 | 29.66587 | 37.10954 | 38905 ft | 553 kts | 110° |
| 2026-04-23 18:02 | 29.64856 | 37.19556 | 38904 ft | 552 kts | 110° |
| 2026-04-23 18:03 | 29.63119 | 37.28161 | 38895 ft | 553 kts | 110° |
| 2026-04-23 18:03 | 29.61383 | 37.36717 | 38903 ft | 554 kts | 110° |
| 2026-04-23 18:04 | 29.59628 | 37.45327 | 38903 ft | 554 kts | 110° |
| 2026-04-23 18:04 | 29.57867 | 37.53943 | 38900 ft | 554 kts | 111° |
| 2026-04-23 18:05 | 29.56097 | 37.62571 | 38902 ft | 555 kts | 111° |
| 2026-04-23 18:05 | 29.54319 | 37.71205 | 38900 ft | 556 kts | 111° |
| 2026-04-23 18:06 | 29.52546 | 37.79788 | 38898 ft | 557 kts | 111° |
| 2026-04-23 18:06 | 29.50752 | 37.88440 | 38898 ft | 557 kts | 111° |
| 2026-04-23 18:07 | 29.48951 | 37.97091 | 38888 ft | 557 kts | 111° |
| 2026-04-23 18:07 | 29.47233 | 38.05797 | 38902 ft | 562 kts | 109° |
| 2026-04-23 18:08 | 29.45966 | 38.13116 | 38899 ft | 563 kts | 108° |
| 2026-04-23 18:08 | 29.44211 | 38.23363 | 38908 ft | 563 kts | 109° |
| 2026-04-23 18:09 | 29.42660 | 38.32165 | 38908 ft | 563 kts | 109° |
| 2026-04-23 18:09 | 29.41082 | 38.40968 | 38922 ft | 563 kts | 109° |
| 2026-04-23 18:10 | 29.39505 | 38.49708 | 38920 ft | 563 kts | 109° |
| 2026-04-23 18:10 | 29.37913 | 38.58502 | 38924 ft | 563 kts | 109° |
| 2026-04-23 18:11 | 29.36320 | 38.67276 | 38899 ft | 562 kts | 109° |
| 2026-04-23 18:11 | 29.34723 | 38.76060 | 38924 ft | 563 kts | 109° |
| 2026-04-23 18:12 | 29.28954 | 39.05730 | 38935 ft | 562 kts | 112° |
| 2026-04-23 18:12 | 29.21668 | 39.40000 | 38949 ft | 565 kts | 112° |
| 2026-04-23 18:13 | 29.19812 | 39.48736 | 38958 ft | 565 kts | 112° |
| 2026-04-23 18:13 | 29.17950 | 39.57468 | 38957 ft | 565 kts | 112° |
| 2026-04-23 18:14 | 29.16094 | 39.66140 | 38965 ft | 565 kts | 112° |
| 2026-04-23 18:14 | 29.14220 | 39.74870 | 38967 ft | 565 kts | 112° |
| 2026-04-23 18:15 | 29.12342 | 39.83590 | 38969 ft | 565 kts | 112° |
| 2026-04-23 18:15 | 29.10458 | 39.92332 | 38971 ft | 567 kts | 112° |
| 2026-04-23 18:16 | 29.08950 | 40.01158 | 38977 ft | 572 kts | 107° |
| 2026-04-23 18:16 | 29.07656 | 40.10130 | 38984 ft | 572 kts | 107° |
| 2026-04-23 18:17 | 29.05617 | 40.23547 | 38988 ft | 571 kts | 108° |
| 2026-04-23 18:17 | 29.04201 | 40.32411 | 38991 ft | 571 kts | 108° |
| 2026-04-23 18:18 | 29.02759 | 40.41341 | 38998 ft | 572 kts | 108° |
| 2026-04-23 18:18 | 29.01313 | 40.50275 | 38991 ft | 572 kts | 108° |
| 2026-04-23 18:19 | 28.99865 | 40.59220 | 38996 ft | 574 kts | 108° |
| 2026-04-23 18:19 | 28.98406 | 40.68179 | 38999 ft | 574 kts | 108° |
| 2026-04-23 18:20 | 28.96954 | 40.77080 | 38996 ft | 574 kts | 108° |
| 2026-04-23 18:20 | 28.95481 | 40.86030 | 38997 ft | 573 kts | 108° |
| 2026-04-23 18:21 | 28.94003 | 40.94980 | 38991 ft | 574 kts | 108° |
| 2026-04-23 18:21 | 28.92521 | 41.03936 | 38995 ft | 575 kts | 108° |
| 2026-04-23 18:22 | 28.91040 | 41.12838 | 39005 ft | 575 kts | 108° |
| 2026-04-23 18:22 | 28.89542 | 41.21797 | 38993 ft | 575 kts | 108° |
| 2026-04-23 18:23 | 28.87285 | 41.35231 | 38978 ft | 575 kts | 108° |
| 2026-04-23 18:24 | 28.85028 | 41.48603 | 38994 ft | 575 kts | 108° |
| 2026-04-23 18:25 | 28.82750 | 41.62013 | 38987 ft | 574 kts | 108° |
| 2026-04-23 18:25 | 28.81218 | 41.70953 | 38996 ft | 574 kts | 108° |
| 2026-04-23 18:26 | 28.79682 | 41.79892 | 38977 ft | 574 kts | 108° |
| 2026-04-23 18:26 | 28.78153 | 41.88760 | 38996 ft | 574 kts | 108° |
| 2026-04-23 18:27 | 28.76610 | 41.97682 | 38993 ft | 574 kts | 108° |
| 2026-04-23 18:27 | 28.75060 | 42.06598 | 38995 ft | 573 kts | 108° |
| 2026-04-23 18:28 | 28.73507 | 42.15502 | 38995 ft | 573 kts | 108° |
| 2026-04-23 18:28 | 28.71958 | 42.24344 | 39007 ft | 573 kts | 108° |
| 2026-04-23 18:29 | 28.70394 | 42.33245 | 38993 ft | 573 kts | 108° |
| 2026-04-23 18:29 | 28.68822 | 42.42141 | 38985 ft | 573 kts | 108° |
| 2026-04-23 18:30 | 28.67244 | 42.51032 | 38996 ft | 572 kts | 108° |
| 2026-04-23 18:30 | 28.65674 | 42.59854 | 39001 ft | 573 kts | 108° |
| 2026-04-23 18:31 | 28.64088 | 42.68735 | 38999 ft | 572 kts | 108° |
| 2026-04-23 18:31 | 28.62369 | 42.77565 | 38995 ft | 570 kts | 110° |
| 2026-04-23 18:32 | 28.60529 | 42.86343 | 39005 ft | 570 kts | 111° |
| 2026-04-23 18:32 | 28.58708 | 42.95062 | 38996 ft | 571 kts | 110° |
| 2026-04-23 18:33 | 28.56895 | 43.03849 | 38996 ft | 570 kts | 110° |
| 2026-04-23 18:33 | 28.55088 | 43.12637 | 38998 ft | 570 kts | 110° |
| 2026-04-23 18:34 | 28.53276 | 43.21419 | 38998 ft | 570 kts | 110° |
| 2026-04-23 18:34 | 28.51457 | 43.30193 | 39002 ft | 570 kts | 110° |
| 2026-04-23 18:35 | 28.49648 | 43.38894 | 38999 ft | 570 kts | 110° |
| 2026-04-23 18:35 | 28.47819 | 43.47655 | 38995 ft | 569 kts | 110° |
| 2026-04-23 18:36 | 28.45987 | 43.56394 | 38997 ft | 568 kts | 110° |
| 2026-04-23 18:36 | 28.44154 | 43.65124 | 38992 ft | 568 kts | 110° |
| 2026-04-23 18:37 | 28.42326 | 43.73787 | 39001 ft | 567 kts | 110° |
| 2026-04-23 18:37 | 28.40484 | 43.82492 | 38999 ft | 567 kts | 110° |
| 2026-04-23 18:38 | 28.38643 | 43.91208 | 39000 ft | 567 kts | 110° |
| 2026-04-23 18:38 | 28.36833 | 43.99912 | 39004 ft | 567 kts | 110° |
| 2026-04-23 18:39 | 28.35036 | 44.08551 | 39003 ft | 566 kts | 110° |
| 2026-04-23 18:39 | 28.33821 | 44.14367 | 39004 ft | 566 kts | 110° |
| 2026-04-23 18:40 | 28.32662 | 44.19892 | 39004 ft | 566 kts | 110° |
| 2026-04-23 18:40 | 28.30834 | 44.28577 | 39000 ft | 566 kts | 110° |
| 2026-04-23 18:41 | 28.29015 | 44.37191 | 39001 ft | 566 kts | 110° |
| 2026-04-23 18:41 | 28.27176 | 44.45870 | 39006 ft | 566 kts | 110° |
| 2026-04-23 18:42 | 28.25334 | 44.54532 | 39003 ft | 565 kts | 110° |
| 2026-04-23 18:42 | 28.23487 | 44.63193 | 38985 ft | 565 kts | 110° |
| 2026-04-23 18:43 | 28.21633 | 44.71857 | 39004 ft | 566 kts | 110° |
| 2026-04-23 18:43 | 28.19786 | 44.80462 | 38996 ft | 566 kts | 110° |
| 2026-04-23 18:44 | 28.17920 | 44.89120 | 38997 ft | 565 kts | 110° |
| 2026-04-23 18:44 | 28.16050 | 44.97776 | 38999 ft | 565 kts | 110° |
| 2026-04-23 18:45 | 28.13893 | 45.06298 | 39006 ft | 556 kts | 121° |
| 2026-04-23 18:45 | 28.10343 | 45.13867 | 38997 ft | 547 kts | 129° |
| 2026-04-23 18:46 | 28.06413 | 45.21237 | 38998 ft | 546 kts | 131° |
| 2026-04-23 18:46 | 28.02431 | 45.28555 | 39000 ft | 546 kts | 131° |
| 2026-04-23 18:47 | 27.98464 | 45.35887 | 38999 ft | 546 kts | 131° |
| 2026-04-23 18:47 | 27.94539 | 45.43169 | 39002 ft | 544 kts | 131° |
| 2026-04-23 18:48 | 27.90610 | 45.50467 | 39000 ft | 543 kts | 131° |
| 2026-04-23 18:48 | 27.87423 | 45.58326 | 39016 ft | 563 kts | 113° |
| 2026-04-23 18:49 | 27.85452 | 45.66921 | 38993 ft | 566 kts | 110° |
| 2026-04-23 18:49 | 27.83727 | 45.75533 | 38991 ft | 566 kts | 109° |
| 2026-04-23 18:50 | 27.82279 | 45.82800 | 39004 ft | 565 kts | 110° |
| 2026-04-23 18:50 | 27.80226 | 45.92852 | 38992 ft | 565 kts | 110° |
| 2026-04-23 18:51 | 27.78434 | 46.01488 | 38995 ft | 565 kts | 110° |
| 2026-04-23 18:51 | 27.76645 | 46.10062 | 38993 ft | 565 kts | 110° |
| 2026-04-23 18:52 | 27.74840 | 46.18694 | 38999 ft | 565 kts | 110° |
| 2026-04-23 18:52 | 27.73032 | 46.27326 | 38999 ft | 565 kts | 110° |
| 2026-04-23 18:53 | 27.71230 | 46.35961 | 38990 ft | 566 kts | 111° |
| 2026-04-23 18:53 | 27.69423 | 46.44607 | 38996 ft | 567 kts | 111° |
| 2026-04-23 18:54 | 27.67618 | 46.53205 | 38993 ft | 567 kts | 111° |
| 2026-04-23 18:54 | 27.65795 | 46.61856 | 38993 ft | 567 kts | 111° |
| 2026-04-23 18:55 | 27.63965 | 46.70515 | 38986 ft | 568 kts | 111° |
| 2026-04-23 18:55 | 27.62123 | 46.79187 | 38993 ft | 568 kts | 111° |
| 2026-04-23 18:56 | 27.60593 | 46.86378 | 38993 ft | 568 kts | 111° |
| 2026-04-23 18:56 | 27.58445 | 46.96440 | 38993 ft | 568 kts | 111° |
| 2026-04-23 18:57 | 27.56590 | 47.05106 | 38978 ft | 569 kts | 111° |
| 2026-04-23 18:57 | 27.54727 | 47.13771 | 38990 ft | 569 kts | 111° |
| 2026-04-23 18:58 | 27.52859 | 47.22433 | 38991 ft | 569 kts | 111° |
| 2026-04-23 18:58 | 27.50999 | 47.31036 | 38990 ft | 569 kts | 111° |
| 2026-04-23 18:59 | 27.49119 | 47.39697 | 38990 ft | 569 kts | 111° |
| 2026-04-23 18:59 | 27.47233 | 47.48349 | 38990 ft | 567 kts | 111° |
| 2026-04-23 19:00 | 27.45352 | 47.56961 | 38986 ft | 566 kts | 111° |
| 2026-04-23 19:00 | 27.43446 | 47.65489 | 38988 ft | 565 kts | 114° |
| 2026-04-23 19:01 | 27.41080 | 47.73886 | 38981 ft | 562 kts | 117° |
| 2026-04-23 19:01 | 27.38577 | 47.82211 | 38979 ft | 561 kts | 116° |
| 2026-04-23 19:02 | 27.36541 | 47.89149 | 38981 ft | 563 kts | 116° |
| 2026-04-23 19:02 | 27.27309 | 48.22259 | 38972 ft | 563 kts | 113° |
| 2026-04-23 19:03 | 27.18363 | 48.56041 | 38959 ft | 563 kts | 113° |
| 2026-04-23 19:03 | 27.09753 | 48.89796 | 38941 ft | 568 kts | 99° |
| 2026-04-23 19:04 | 27.07989 | 49.25159 | 38930 ft | 568 kts | 97° |
| 2026-04-23 19:04 | 27.06262 | 49.60459 | 38915 ft | 573 kts | 97° |
| 2026-04-23 19:05 | 27.04443 | 49.96193 | 38926 ft | 574 kts | 97° |
| 2026-04-23 19:05 | 27.04715 | 50.32044 | 38922 ft | 574 kts | 94° |
| 2026-04-23 19:05 | 27.00551 | 50.48858 | 38912 ft | 559 kts | 119° |
| 2026-04-23 19:06 | 26.94951 | 50.63365 | 38911 ft | 562 kts | 120° |
| 2026-04-23 19:06 | 26.91855 | 50.71401 | 38908 ft | 562 kts | 119° |
| 2026-04-23 19:07 | 26.83400 | 50.93532 | 38897 ft | 564 kts | 119° |
| 2026-04-23 19:07 | 26.75599 | 51.14286 | 38901 ft | 567 kts | 116° |
| 2026-04-23 19:08 | 26.72982 | 51.22618 | 38912 ft | 568 kts | 114° |
| 2026-04-23 19:08 | 26.70413 | 51.30955 | 38912 ft | 567 kts | 115° |
| 2026-04-23 19:09 | 26.67802 | 51.39200 | 38918 ft | 567 kts | 115° |
| 2026-04-23 19:09 | 26.65130 | 51.47506 | 38916 ft | 568 kts | 115° |
| 2026-04-23 19:10 | 26.62455 | 51.55810 | 38911 ft | 568 kts | 115° |
| 2026-04-23 19:10 | 26.57519 | 51.71093 | 38913 ft | 566 kts | 115° |
| 2026-04-23 19:11 | 26.54871 | 51.79313 | 38916 ft | 566 kts | 115° |
| 2026-04-23 19:11 | 26.51532 | 51.89613 | 38909 ft | 567 kts | 115° |
| 2026-04-23 19:12 | 26.49263 | 51.96472 | 38898 ft | 567 kts | 115° |
| 2026-04-23 19:12 | 26.46036 | 52.06089 | 38903 ft | 565 kts | 115° |
| 2026-04-23 19:13 | 26.43303 | 52.14253 | 38900 ft | 566 kts | 115° |
| 2026-04-23 19:13 | 26.40552 | 52.22481 | 38892 ft | 566 kts | 115° |
| 2026-04-23 19:14 | 26.37793 | 52.30709 | 38888 ft | 566 kts | 115° |
| 2026-04-23 19:14 | 26.35031 | 52.38922 | 38883 ft | 565 kts | 115° |
| 2026-04-23 19:15 | 26.32068 | 52.46997 | 38883 ft | 562 kts | 118° |
| 2026-04-23 19:15 | 26.28940 | 52.54918 | 38879 ft | 562 kts | 118° |
| 2026-04-23 19:16 | 26.25808 | 52.62892 | 38876 ft | 562 kts | 118° |
| 2026-04-23 19:16 | 26.22719 | 52.70888 | 38870 ft | 562 kts | 117° |
| 2026-04-23 19:17 | 26.18153 | 52.82826 | 38866 ft | 560 kts | 117° |
| 2026-04-23 19:17 | 26.14001 | 52.93652 | 38863 ft | 560 kts | 117° |
| 2026-04-23 19:18 | 26.10936 | 53.01618 | 38873 ft | 560 kts | 118° |
| 2026-04-23 19:18 | 26.07909 | 53.09598 | 38858 ft | 559 kts | 117° |
| 2026-04-23 19:19 | 26.03547 | 53.21560 | 38857 ft | 559 kts | 116° |
| 2026-04-23 19:20 | 25.99147 | 53.33557 | 38852 ft | 560 kts | 116° |
| 2026-04-23 19:20 | 25.96187 | 53.41562 | 38851 ft | 560 kts | 116° |
| 2026-04-23 19:21 | 25.91780 | 53.53523 | 38845 ft | 561 kts | 115° |
| 2026-04-23 19:22 | 25.89000 | 53.61615 | 38845 ft | 561 kts | 115° |
| 2026-04-23 19:22 | 25.84866 | 53.73770 | 38850 ft | 561 kts | 115° |
| 2026-04-23 19:23 | 25.82073 | 53.81858 | 38839 ft | 562 kts | 115° |
| 2026-04-23 19:24 | 25.77864 | 53.93934 | 38758 ft | 558 kts | 115° |
| 2026-04-23 19:24 | 25.76470 | 53.97939 | 38239 ft | 555 kts | 115° |
| 2026-04-23 19:24 | 25.73759 | 54.05920 | 36993 ft | 550 kts | 113° |
| 2026-04-23 19:25 | 25.71342 | 54.13804 | 35096 ft | 532 kts | 112° |
| 2026-04-23 19:25 | 25.69016 | 54.21424 | 33255 ft | 510 kts | 112° |
| 2026-04-23 19:26 | 25.66767 | 54.28694 | 31200 ft | 493 kts | 112° |
| 2026-04-23 19:26 | 25.65663 | 54.32256 | 30218 ft | 485 kts | 112° |
| 2026-04-23 19:27 | 25.63504 | 54.39218 | 28034 ft | 470 kts | 112° |
| 2026-04-23 19:27 | 25.60493 | 54.49052 | 26288 ft | 422 kts | 110° |
| 2026-04-23 19:28 | 25.58732 | 54.55054 | 25150 ft | 405 kts | 110° |
| 2026-04-23 19:28 | 25.58136 | 54.61140 | 23767 ft | 397 kts | 84° |
| 2026-04-23 19:29 | 25.58454 | 54.64157 | 23058 ft | 392 kts | 82° |
| 2026-04-23 19:29 | 25.59181 | 54.70099 | 21534 ft | 387 kts | 82° |
| 2026-04-23 19:30 | 25.59909 | 54.75956 | 20071 ft | 381 kts | 82° |
| 2026-04-23 19:30 | 25.60265 | 54.78808 | 19378 ft | 377 kts | 82° |
| 2026-04-23 19:30 | 25.60958 | 54.84526 | 17998 ft | 372 kts | 85° |
| 2026-04-23 19:31 | 25.60758 | 54.87349 | 17225 ft | 366 kts | 109° |
| 2026-04-23 19:31 | 25.59880 | 54.89958 | 16468 ft | 359 kts | 117° |
| 2026-04-23 19:31 | 25.58880 | 54.92480 | 15741 ft | 355 kts | 118° |
| 2026-04-23 19:31 | 25.57884 | 54.94966 | 15015 ft | 351 kts | 118° |
| 2026-04-23 19:32 | 25.56907 | 54.97423 | 14318 ft | 346 kts | 118° |
| 2026-04-23 19:32 | 25.55947 | 54.99850 | 13625 ft | 341 kts | 118° |
| 2026-04-23 19:32 | 25.55323 | 55.01436 | 13129 ft | 338 kts | 118° |
| 2026-04-23 19:32 | 25.54335 | 55.03763 | 12421 ft | 330 kts | 123° |
| 2026-04-23 19:33 | 25.53233 | 55.05960 | 11699 ft | 324 kts | 124° |
| 2026-04-23 19:33 | 25.51757 | 55.08798 | 10762 ft | 318 kts | 124° |
| 2026-04-23 19:33 | 25.49639 | 55.12901 | 10025 ft | 289 kts | 122° |
| 2026-04-23 19:34 | 25.48706 | 55.14765 | 9981 ft | 266 kts | 120° |
| 2026-04-23 19:34 | 25.48127 | 55.15945 | 9979 ft | 261 kts | 120° |
| 2026-04-23 19:34 | 25.46390 | 55.19437 | 9969 ft | 258 kts | 123° |
| 2026-04-23 19:35 | 25.45313 | 55.21011 | 9973 ft | 255 kts | 132° |
| 2026-04-23 19:35 | 25.44145 | 55.22475 | 9972 ft | 253 kts | 133° |
| 2026-04-23 19:35 | 25.42970 | 55.23923 | 9971 ft | 253 kts | 133° |
| 2026-04-23 19:35 | 25.41415 | 55.25838 | 9971 ft | 253 kts | 133° |
| 2026-04-23 19:36 | 25.40620 | 55.26817 | 9979 ft | 253 kts | 133° |
| 2026-04-23 19:36 | 25.39448 | 55.28259 | 10004 ft | 251 kts | 132° |
| 2026-04-23 19:36 | 25.38297 | 55.29682 | 9990 ft | 252 kts | 132° |
| 2026-04-23 19:36 | 25.37124 | 55.31126 | 9953 ft | 251 kts | 133° |
| 2026-04-23 19:37 | 25.35934 | 55.32501 | 9567 ft | 247 kts | 139° |
| 2026-04-23 19:37 | 25.34512 | 55.33550 | 9066 ft | 246 kts | 152° |
| 2026-04-23 19:37 | 25.33004 | 55.34435 | 8688 ft | 245 kts | 152° |
| 2026-04-23 19:37 | 25.31517 | 55.35295 | 8499 ft | 236 kts | 151° |
| 2026-04-23 19:38 | 25.30109 | 55.36135 | 8344 ft | 225 kts | 148° |
| 2026-04-23 19:38 | 25.28754 | 55.36969 | 7993 ft | 222 kts | 147° |
| 2026-04-23 19:38 | 25.27397 | 55.37802 | 7593 ft | 223 kts | 147° |
| 2026-04-23 19:38 | 25.26037 | 55.38620 | 7205 ft | 222 kts | 147° |
| 2026-04-23 19:39 | 25.24675 | 55.39434 | 6820 ft | 222 kts | 148° |
| 2026-04-23 19:39 | 25.23330 | 55.40228 | 6447 ft | 222 kts | 148° |
| 2026-04-23 19:39 | 25.21950 | 55.40987 | 6121 ft | 221 kts | 157° |
| 2026-04-23 19:39 | 25.20562 | 55.41689 | 5820 ft | 218 kts | 156° |
| 2026-04-23 19:40 | 25.19201 | 55.42413 | 5516 ft | 216 kts | 154° |
| 2026-04-23 19:40 | 25.17859 | 55.43161 | 5203 ft | 215 kts | 153° |
| 2026-04-23 19:40 | 25.16530 | 55.43915 | 4894 ft | 214 kts | 153° |
| 2026-04-23 19:40 | 25.15212 | 55.44669 | 4580 ft | 213 kts | 152° |
| 2026-04-23 19:41 | 25.13904 | 55.45424 | 4259 ft | 212 kts | 151° |
| 2026-04-23 19:41 | 25.12604 | 55.46180 | 3927 ft | 211 kts | 150° |
| 2026-04-23 19:41 | 25.11391 | 55.47066 | 3620 ft | 208 kts | 136° |
| 2026-04-23 19:41 | 25.10472 | 55.48274 | 3336 ft | 204 kts | 121° |
| 2026-04-23 19:42 | 25.09735 | 55.49574 | 3073 ft | 202 kts | 118° |
| 2026-04-23 19:42 | 25.09011 | 55.50902 | 3001 ft | 203 kts | 118° |
| 2026-04-23 19:42 | 25.08277 | 55.52238 | 2893 ft | 206 kts | 118° |
| 2026-04-23 19:42 | 25.07513 | 55.53612 | 2465 ft | 211 kts | 121° |
| 2026-04-23 19:43 | 25.07031 | 55.55093 | 2176 ft | 203 kts | 90° |
| 2026-04-23 19:43 | 25.07394 | 55.56518 | 2023 ft | 191 kts | 51° |
| 2026-04-23 19:43 | 25.08362 | 55.57505 | 2005 ft | 191 kts | 34° |
| 2026-04-23 19:43 | 25.09504 | 55.58277 | 1990 ft | 195 kts | 22° |
| 2026-04-23 19:44 | 25.10840 | 55.58339 | 2009 ft | 195 kts | 344° |
| 2026-04-23 19:44 | 25.12074 | 55.57760 | 2002 ft | 197 kts | 333° |
| 2026-04-23 19:44 | 25.13280 | 55.57032 | 1998 ft | 199 kts | 333° |
| 2026-04-23 19:44 | 25.14344 | 55.56086 | 2005 ft | 191 kts | 308° |
| 2026-04-23 19:45 | 25.15022 | 55.54893 | 2011 ft | 180 kts | 293° |
| 2026-04-23 19:45 | 25.15601 | 55.53650 | 2001 ft | 184 kts | 293° |
| 2026-04-23 19:45 | 25.16212 | 55.52403 | 2003 ft | 185 kts | 296° |
| 2026-04-23 19:45 | 25.16851 | 55.51182 | 1998 ft | 184 kts | 296° |
| 2026-04-23 19:46 | 25.17663 | 55.50078 | 1992 ft | 184 kts | 308° |
| 2026-04-23 19:46 | 25.18293 | 55.48917 | 1939 ft | 170 kts | 302° |
| 2026-04-23 19:46 | 25.18883 | 55.47843 | 1750 ft | 162 kts | 308° |
| 2026-04-23 19:46 | 25.19489 | 55.46838 | 1531 ft | 153 kts | 308° |
| 2026-04-23 19:47 | 25.20055 | 55.45865 | 1334 ft | 150 kts | 306° |
| 2026-04-23 19:47 | 25.20606 | 55.44889 | 1136 ft | 150 kts | 304° |
| 2026-04-23 19:47 | 25.21146 | 55.43903 | 962 ft | 150 kts | 303° |
| 2026-04-23 19:47 | 25.21692 | 55.42929 | 752 ft | 149 kts | 303° |
| 2026-04-23 19:48 | 25.22241 | 55.41968 | 513 ft | 145 kts | 302° |
| 2026-04-23 19:48 | 25.22759 | 55.41087 | 316 ft | 138 kts | 297° |
| 2026-04-23 19:48 | 25.23256 | 55.40116 | 234 ft | 143 kts | 298° |
| 2026-04-23 19:48 | 25.23767 | 55.39166 | 88 ft | 143 kts | 301° |
| 2026-04-23 19:49 | 25.24278 | 55.38242 | 37 ft | 140 kts | 302° |
| 2026-04-23 19:49 | 25.24756 | 55.37384 | 28 ft | 118 kts | 301° |
| 2026-04-23 19:49 | 25.24982 | 55.36998 | 28 ft | 28 kts | 297° |
| 2026-04-23 19:49 | 25.25016 | 55.36853 | 28 ft | 18 kts | 274° |
| 2026-04-23 19:50 | 25.25020 | 55.36751 | 28 ft | 6 kts | 272° |
| 2026-04-23 19:50 | 25.25021 | 55.36708 | 28 ft | 0 kts | 271° |
| 2026-04-23 19:50 | 25.25021 | 55.36706 | 28 ft | 1 kts | 271° |
| 2026-04-23 19:51 | 25.25021 | 55.36705 | 28 ft | 0 kts | 271° |
| 2026-04-23 19:51 | 25.25022 | 55.36674 | 28 ft | 6 kts | 271° |
| 2026-04-23 19:51 | 25.25023 | 55.36633 | 28 ft | 1 kts | 271° |
| 2026-04-23 19:52 | 25.25024 | 55.36597 | 28 ft | 0 kts | 271° |
| 2026-04-23 19:52 | 25.25024 | 55.36596 | 28 ft | 1 kts | 271° |
| 2026-04-23 19:52 | 25.25025 | 55.36555 | 28 ft | 7 kts | 272° |
| 2026-04-23 19:52 | 25.25033 | 55.36484 | 28 ft | 13 kts | 281° |
| 2026-04-23 19:53 | 25.25046 | 55.36423 | 28 ft | 6 kts | 287° |
| 2026-04-23 19:53 | 25.25063 | 55.36373 | 28 ft | 7 kts | 293° |
| 2026-04-23 19:53 | 25.25075 | 55.36346 | 28 ft | 4 kts | 296° |
| 2026-04-23 19:53 | 25.25099 | 55.36299 | 28 ft | 7 kts | 301° |
| 2026-04-23 19:54 | 25.25126 | 55.36251 | 28 ft | 10 kts | 302° |
| 2026-04-23 19:54 | 25.25166 | 55.36179 | 28 ft | 14 kts | 302° |
| 2026-04-23 19:54 | 25.25214 | 55.36094 | 28 ft | 2 kts | 302° |
| 2026-04-23 19:54 | 25.25239 | 55.36050 | 28 ft | 12 kts | 302° |
| 2026-04-23 19:55 | 25.25274 | 55.35988 | 28 ft | 7 kts | 302° |
| 2026-04-23 19:55 | 25.25297 | 55.35946 | 28 ft | 5 kts | 302° |
| 2026-04-23 19:55 | 25.25330 | 55.35888 | 28 ft | 9 kts | 302° |
| 2026-04-23 19:55 | 25.25373 | 55.35810 | 28 ft | 11 kts | 302° |
| 2026-04-23 19:56 | 25.25392 | 55.35776 | 28 ft | 6 kts | 302° |
| 2026-04-23 19:56 | 25.25430 | 55.35709 | 28 ft | 11 kts | 302° |
| 2026-04-23 19:56 | 25.25468 | 55.35643 | 28 ft | 13 kts | 301° |
| 2026-04-23 19:56 | 25.25528 | 55.35535 | 28 ft | 14 kts | 301° |
| 2026-04-23 19:57 | 25.25564 | 55.35470 | 28 ft | 12 kts | 302° |
| 2026-04-23 19:57 | 25.25610 | 55.35391 | 28 ft | 10 kts | 302° |
| 2026-04-23 19:57 | 25.25656 | 55.35307 | 28 ft | 17 kts | 301° |
| 2026-04-23 19:57 | 25.25682 | 55.35262 | 28 ft | 0 kts | 302° |
| 2026-04-23 19:59 | 25.25701 | 55.35227 | 28 ft | 12 kts | 302° |
| 2026-04-23 20:00 | 25.25759 | 55.35123 | 28 ft | 17 kts | 300° |
| 2026-04-23 20:00 | 25.25820 | 55.35010 | 28 ft | 17 kts | 301° |
| 2026-04-23 20:00 | 25.25894 | 55.34878 | 28 ft | 20 kts | 301° |
| 2026-04-23 20:00 | 25.25950 | 55.34779 | 28 ft | 15 kts | 302° |
| 2026-04-23 20:01 | 25.26013 | 55.34666 | 28 ft | 21 kts | 302° |
| 2026-04-23 20:01 | 25.26081 | 55.34545 | 28 ft | 15 kts | 302° |
| 2026-04-23 20:01 | 25.26131 | 55.34457 | 28 ft | 14 kts | 302° |
| 2026-04-23 20:01 | 25.26193 | 55.34346 | 28 ft | 20 kts | 302° |
| 2026-04-23 20:02 | 25.26258 | 55.34230 | 28 ft | 15 kts | 302° |
| 2026-04-23 20:02 | 25.26259 | 55.34155 | 28 ft | 10 kts | 201° |
| 2026-04-23 20:02 | 25.26168 | 55.34140 | 28 ft | 14 kts | 189° |
| 2026-04-23 20:02 | 25.26107 | 55.34129 | 28 ft | 7 kts | 189° |
| 2026-04-23 20:03 | 25.26101 | 55.34128 | 28 ft | 0 kts | 189° |